sensor_id;sensor_type;location;lat;lon;timestamp;temperature;humidity
2783;DHT22;1399;47.072;15.452;2022-10-31T00:01:29;14.60;85.90
2783;DHT22;1399;47.072;15.452;2022-10-31T00:03:56;14.60;85.90
2783;DHT22;1399;47.072;15.452;2022-10-31T00:06:22;14.60;85.80
2783;DHT22;1399;47.072;15.452;2022-10-31T00:09:02;14.60;85.80
2783;DHT22;1399;47.072;15.452;2022-10-31T00:11:30;14.60;85.70
2783;DHT22;1399;47.072;15.452;2022-10-31T00:13:57;14.60;85.70
2783;DHT22;1399;47.072;15.452;2022-10-31T00:16:25;14.60;85.60
2783;DHT22;1399;47.072;15.452;2022-10-31T00:18:53;14.60;85.60
2783;DHT22;1399;47.072;15.452;2022-10-31T00:21:20;14.60;85.60
2783;DHT22;1399;47.072;15.452;2022-10-31T00:23:45;14.60;85.50
2783;DHT22;1399;47.072;15.452;2022-10-31T00:26:11;14.60;85.50
2783;DHT22;1399;47.072;15.452;2022-10-31T00:28:38;14.50;85.30
2783;DHT22;1399;47.072;15.452;2022-10-31T00:31:07;14.60;85.40
2783;DHT22;1399;47.072;15.452;2022-10-31T00:33:35;14.60;85.50
2783;DHT22;1399;47.072;15.452;2022-10-31T00:36:02;14.50;85.30
2783;DHT22;1399;47.072;15.452;2022-10-31T00:38:28;14.50;86.10
2783;DHT22;1399;47.072;15.452;2022-10-31T00:40:54;14.50;85.20
2783;DHT22;1399;47.072;15.452;2022-10-31T00:43:20;14.50;85.20
2783;DHT22;1399;47.072;15.452;2022-10-31T00:45:46;14.50;85.10
2783;DHT22;1399;47.072;15.452;2022-10-31T00:48:11;14.50;85.00
2783;DHT22;1399;47.072;15.452;2022-10-31T00:50:38;14.50;85.00
2783;DHT22;1399;47.072;15.452;2022-10-31T00:53:04;14.50;84.90
2783;DHT22;1399;47.072;15.452;2022-10-31T00:55:30;14.50;84.80
2783;DHT22;1399;47.072;15.452;2022-10-31T00:57:56;14.50;84.80
2783;DHT22;1399;47.072;15.452;2022-10-31T01:00:23;14.50;85.50
2783;DHT22;1399;47.072;15.452;2022-10-31T01:02:49;14.50;84.70
2783;DHT22;1399;47.072;15.452;2022-10-31T01:05:14;14.40;84.60
2783;DHT22;1399;47.072;15.452;2022-10-31T01:07:41;14.40;84.50
2783;DHT22;1399;47.072;15.452;2022-10-31T01:10:07;14.40;84.50
2783;DHT22;1399;47.072;15.452;2022-10-31T01:12:42;14.40;84.40
2783;DHT22;1399;47.072;15.452;2022-10-31T01:15:10;14.40;84.30
2783;DHT22;1399;47.072;15.452;2022-10-31T01:17:35;14.40;84.30
2783;DHT22;1399;47.072;15.452;2022-10-31T01:20:03;14.40;84.20
2783;DHT22;1399;47.072;15.452;2022-10-31T01:22:29;14.40;84.20
2783;DHT22;1399;47.072;15.452;2022-10-31T01:24:55;14.40;84.10
2783;DHT22;1399;47.072;15.452;2022-10-31T01:27:20;14.40;84.10
2783;DHT22;1399;47.072;15.452;2022-10-31T01:29:46;14.40;84.00
2783;DHT22;1399;47.072;15.452;2022-10-31T01:32:12;14.30;83.80
2783;DHT22;1399;47.072;15.452;2022-10-31T01:34:37;14.30;83.80
2783;DHT22;1399;47.072;15.452;2022-10-31T01:37:03;14.30;83.80
2783;DHT22;1399;47.072;15.452;2022-10-31T01:39:29;14.30;83.70
2783;DHT22;1399;47.072;15.452;2022-10-31T01:41:55;14.30;83.70
2783;DHT22;1399;47.072;15.452;2022-10-31T01:46:53;14.30;83.60
2783;DHT22;1399;47.072;15.452;2022-10-31T01:54:51;14.30;83.40
2783;DHT22;1399;47.072;15.452;2022-10-31T01:57:20;14.30;83.30
2783;DHT22;1399;47.072;15.452;2022-10-31T01:59:49;14.20;83.10
2783;DHT22;1399;47.072;15.452;2022-10-31T02:02:17;14.20;83.20
2783;DHT22;1399;47.072;15.452;2022-10-31T02:04:44;14.20;83.10
2783;DHT22;1399;47.072;15.452;2022-10-31T02:07:25;14.20;83.00
2783;DHT22;1399;47.072;15.452;2022-10-31T02:09:53;14.20;83.10
2783;DHT22;1399;47.072;15.452;2022-10-31T02:12:22;14.20;83.00
2783;DHT22;1399;47.072;15.452;2022-10-31T02:14:48;14.20;83.00
2783;DHT22;1399;47.072;15.452;2022-10-31T02:17:14;14.20;82.90
2783;DHT22;1399;47.072;15.452;2022-10-31T02:25:38;14.20;82.80
2783;DHT22;1399;47.072;15.452;2022-10-31T02:39:13;14.10;82.50
2783;DHT22;1399;47.072;15.452;2022-10-31T02:47:18;14.10;82.30
2783;DHT22;1399;47.072;15.452;2022-10-31T02:52:31;14.10;82.30
2783;DHT22;1399;47.072;15.452;2022-10-31T02:54:58;14.00;82.10
2783;DHT22;1399;47.072;15.452;2022-10-31T02:57:32;14.00;82.00
2783;DHT22;1399;47.072;15.452;2022-10-31T03:00:08;14.00;82.00
2783;DHT22;1399;47.072;15.452;2022-10-31T03:06:08;14.00;81.90
2783;DHT22;1399;47.072;15.452;2022-10-31T03:09:00;14.00;81.80
2783;DHT22;1399;47.072;15.452;2022-10-31T03:11:45;14.00;81.80
2783;DHT22;1399;47.072;15.452;2022-10-31T03:14:26;14.00;81.80
2783;DHT22;1399;47.072;15.452;2022-10-31T03:16:57;14.00;81.70
2783;DHT22;1399;47.072;15.452;2022-10-31T03:19:40;14.00;81.80
2783;DHT22;1399;47.072;15.452;2022-10-31T03:22:17;13.90;81.70
2783;DHT22;1399;47.072;15.452;2022-10-31T03:24:45;13.90;81.60
2783;DHT22;1399;47.072;15.452;2022-10-31T03:27:16;13.90;81.50
2783;DHT22;1399;47.072;15.452;2022-10-31T03:29:44;13.90;81.50
2783;DHT22;1399;47.072;15.452;2022-10-31T03:32:18;13.90;81.40
2783;DHT22;1399;47.072;15.452;2022-10-31T03:34:46;13.90;81.40
2783;DHT22;1399;47.072;15.452;2022-10-31T03:37:16;13.90;81.30
2783;DHT22;1399;47.072;15.452;2022-10-31T03:39:45;13.90;81.30
2783;DHT22;1399;47.072;15.452;2022-10-31T03:42:16;13.90;81.30
2783;DHT22;1399;47.072;15.452;2022-10-31T03:44:49;13.90;81.30
2783;DHT22;1399;47.072;15.452;2022-10-31T03:47:17;13.80;81.30
2783;DHT22;1399;47.072;15.452;2022-10-31T03:49:43;13.90;81.40
2783;DHT22;1399;47.072;15.452;2022-10-31T03:55:15;13.80;81.30
2783;DHT22;1399;47.072;15.452;2022-10-31T04:00:15;13.80;81.20
2783;DHT22;1399;47.072;15.452;2022-10-31T04:02:51;13.80;81.20
2783;DHT22;1399;47.072;15.452;2022-10-31T04:05:20;13.80;81.20
2783;DHT22;1399;47.072;15.452;2022-10-31T04:07:50;13.80;81.10
2783;DHT22;1399;47.072;15.452;2022-10-31T04:10:17;13.80;81.20
2783;DHT22;1399;47.072;15.452;2022-10-31T04:12:48;13.80;81.20
2783;DHT22;1399;47.072;15.452;2022-10-31T04:15:15;13.80;81.10
2783;DHT22;1399;47.072;15.452;2022-10-31T04:17:43;13.80;81.10
2783;DHT22;1399;47.072;15.452;2022-10-31T04:20:12;13.80;81.00
2783;DHT22;1399;47.072;15.452;2022-10-31T04:22:40;13.70;80.90
2783;DHT22;1399;47.072;15.452;2022-10-31T04:25:06;13.70;80.80
2783;DHT22;1399;47.072;15.452;2022-10-31T04:27:32;13.70;80.80
2783;DHT22;1399;47.072;15.452;2022-10-31T04:29:58;13.70;80.80
2783;DHT22;1399;47.072;15.452;2022-10-31T04:32:25;13.70;80.70
2783;DHT22;1399;47.072;15.452;2022-10-31T04:34:51;13.70;80.70
2783;DHT22;1399;47.072;15.452;2022-10-31T04:37:17;13.70;80.60
2783;DHT22;1399;47.072;15.452;2022-10-31T04:39:42;13.70;80.60
2783;DHT22;1399;47.072;15.452;2022-10-31T04:42:08;13.70;80.50
2783;DHT22;1399;47.072;15.452;2022-10-31T04:44:34;13.70;80.50
2783;DHT22;1399;47.072;15.452;2022-10-31T04:47:00;13.70;80.40
2783;DHT22;1399;47.072;15.452;2022-10-31T04:49:25;13.70;80.30
2783;DHT22;1399;47.072;15.452;2022-10-31T04:51:51;13.70;80.30
2783;DHT22;1399;47.072;15.452;2022-10-31T04:54:17;13.60;80.20
2783;DHT22;1399;47.072;15.452;2022-10-31T04:56:42;13.60;80.20
2783;DHT22;1399;47.072;15.452;2022-10-31T04:59:08;13.60;80.10
2783;DHT22;1399;47.072;15.452;2022-10-31T05:01:34;13.60;80.10
2783;DHT22;1399;47.072;15.452;2022-10-31T05:03:59;13.60;80.10
2783;DHT22;1399;47.072;15.452;2022-10-31T05:06:25;13.60;80.10
2783;DHT22;1399;47.072;15.452;2022-10-31T05:08:51;13.60;80.10
2783;DHT22;1399;47.072;15.452;2022-10-31T05:11:17;13.60;80.00
2783;DHT22;1399;47.072;15.452;2022-10-31T05:13:43;13.60;80.00
2783;DHT22;1399;47.072;15.452;2022-10-31T05:16:09;13.60;80.00
2783;DHT22;1399;47.072;15.452;2022-10-31T05:18:34;13.60;79.90
2783;DHT22;1399;47.072;15.452;2022-10-31T05:21:00;13.60;79.90
2783;DHT22;1399;47.072;15.452;2022-10-31T05:23:26;13.60;79.90
2783;DHT22;1399;47.072;15.452;2022-10-31T05:25:52;13.60;79.80
2783;DHT22;1399;47.072;15.452;2022-10-31T05:28:17;13.50;79.70
2783;DHT22;1399;47.072;15.452;2022-10-31T05:30:43;13.60;79.80
2783;DHT22;1399;47.072;15.452;2022-10-31T05:33:09;13.50;79.70
2783;DHT22;1399;47.072;15.452;2022-10-31T05:35:35;13.50;79.70
2783;DHT22;1399;47.072;15.452;2022-10-31T05:38:01;13.50;79.70
2783;DHT22;1399;47.072;15.452;2022-10-31T05:40:27;13.50;79.70
2783;DHT22;1399;47.072;15.452;2022-10-31T05:42:55;13.50;79.60
2783;DHT22;1399;47.072;15.452;2022-10-31T05:45:22;13.50;79.60
2783;DHT22;1399;47.072;15.452;2022-10-31T05:47:59;13.50;79.60
2783;DHT22;1399;47.072;15.452;2022-10-31T05:50:26;13.50;79.60
2783;DHT22;1399;47.072;15.452;2022-10-31T05:53:00;13.50;79.50
2783;DHT22;1399;47.072;15.452;2022-10-31T05:55:27;13.50;79.50
2783;DHT22;1399;47.072;15.452;2022-10-31T05:57:54;13.50;79.50
2783;DHT22;1399;47.072;15.452;2022-10-31T06:00:20;13.50;79.40
2783;DHT22;1399;47.072;15.452;2022-10-31T06:02:46;13.50;79.40
2783;DHT22;1399;47.072;15.452;2022-10-31T06:05:13;13.50;79.40
2783;DHT22;1399;47.072;15.452;2022-10-31T06:07:39;13.50;79.30
2783;DHT22;1399;47.072;15.452;2022-10-31T06:10:06;13.60;79.40
2783;DHT22;1399;47.072;15.452;2022-10-31T06:12:34;13.60;79.40
2783;DHT22;1399;47.072;15.452;2022-10-31T06:15:04;13.60;79.40
2783;DHT22;1399;47.072;15.452;2022-10-31T06:17:31;13.60;79.40
2783;DHT22;1399;47.072;15.452;2022-10-31T06:19:57;13.60;79.40
2783;DHT22;1399;47.072;15.452;2022-10-31T06:22:22;13.60;79.40
2783;DHT22;1399;47.072;15.452;2022-10-31T06:24:48;13.60;79.30
2783;DHT22;1399;47.072;15.452;2022-10-31T06:27:14;13.60;79.30
2783;DHT22;1399;47.072;15.452;2022-10-31T06:29:40;13.60;79.20
2783;DHT22;1399;47.072;15.452;2022-10-31T06:32:06;13.60;79.30
2783;DHT22;1399;47.072;15.452;2022-10-31T06:34:31;13.70;79.30
2783;DHT22;1399;47.072;15.452;2022-10-31T06:36:57;13.70;79.30
2783;DHT22;1399;47.072;15.452;2022-10-31T06:39:23;13.70;79.30
2783;DHT22;1399;47.072;15.452;2022-10-31T06:41:49;13.70;79.30
2783;DHT22;1399;47.072;15.452;2022-10-31T06:44:14;13.70;79.20
2783;DHT22;1399;47.072;15.452;2022-10-31T06:46:40;13.80;79.30
2783;DHT22;1399;47.072;15.452;2022-10-31T06:49:06;13.80;79.30
2783;DHT22;1399;47.072;15.452;2022-10-31T06:51:32;13.80;79.30
2783;DHT22;1399;47.072;15.452;2022-10-31T06:53:57;13.80;79.30
2783;DHT22;1399;47.072;15.452;2022-10-31T06:56:23;13.90;79.40
2783;DHT22;1399;47.072;15.452;2022-10-31T06:58:49;13.90;79.40
2783;DHT22;1399;47.072;15.452;2022-10-31T07:01:15;13.90;79.40
2783;DHT22;1399;47.072;15.452;2022-10-31T07:03:41;13.90;79.40
2783;DHT22;1399;47.072;15.452;2022-10-31T07:06:06;14.00;79.40
2783;DHT22;1399;47.072;15.452;2022-10-31T07:08:32;14.00;79.40
2783;DHT22;1399;47.072;15.452;2022-10-31T07:10:58;14.00;79.40
2783;DHT22;1399;47.072;15.452;2022-10-31T07:13:24;14.00;79.40
2783;DHT22;1399;47.072;15.452;2022-10-31T07:15:53;14.10;79.50
2783;DHT22;1399;47.072;15.452;2022-10-31T07:18:19;14.10;79.50
2783;DHT22;1399;47.072;15.452;2022-10-31T07:20:45;14.10;79.40
2783;DHT22;1399;47.072;15.452;2022-10-31T07:23:12;14.10;79.40
2783;DHT22;1399;47.072;15.452;2022-10-31T07:25:41;14.20;79.50
2783;DHT22;1399;47.072;15.452;2022-10-31T07:28:07;14.20;79.50
2783;DHT22;1399;47.072;15.452;2022-10-31T07:30:33;14.20;79.50
2783;DHT22;1399;47.072;15.452;2022-10-31T07:32:59;14.20;79.50
2783;DHT22;1399;47.072;15.452;2022-10-31T07:35:27;14.30;79.70
2783;DHT22;1399;47.072;15.452;2022-10-31T07:37:54;14.30;79.60
2783;DHT22;1399;47.072;15.452;2022-10-31T07:40:20;14.30;79.70
2783;DHT22;1399;47.072;15.452;2022-10-31T07:42:48;14.40;79.70
2783;DHT22;1399;47.072;15.452;2022-10-31T07:45:17;14.40;79.70
2783;DHT22;1399;47.072;15.452;2022-10-31T07:47:49;14.50;79.70
2783;DHT22;1399;47.072;15.452;2022-10-31T07:50:18;14.50;79.70
2783;DHT22;1399;47.072;15.452;2022-10-31T07:52:44;14.50;79.70
2783;DHT22;1399;47.072;15.452;2022-10-31T07:55:11;14.50;79.70
2783;DHT22;1399;47.072;15.452;2022-10-31T07:57:37;14.60;79.90
2783;DHT22;1399;47.072;15.452;2022-10-31T08:00:08;14.60;79.90
2783;DHT22;1399;47.072;15.452;2022-10-31T08:02:34;14.60;79.80
2783;DHT22;1399;47.072;15.452;2022-10-31T08:05:00;14.70;80.00
2783;DHT22;1399;47.072;15.452;2022-10-31T08:07:28;14.70;79.80
2783;DHT22;1399;47.072;15.452;2022-10-31T08:09:54;14.80;79.80
2783;DHT22;1399;47.072;15.452;2022-10-31T08:12:20;14.90;79.80
2783;DHT22;1399;47.072;15.452;2022-10-31T08:14:46;15.00;79.60
2783;DHT22;1399;47.072;15.452;2022-10-31T08:17:12;15.10;79.20
2783;DHT22;1399;47.072;15.452;2022-10-31T08:19:38;15.10;79.10
2783;DHT22;1399;47.072;15.452;2022-10-31T08:22:04;15.10;79.00
2783;DHT22;1399;47.072;15.452;2022-10-31T08:24:29;15.10;79.00
2783;DHT22;1399;47.072;15.452;2022-10-31T08:26:55;15.20;79.10
2783;DHT22;1399;47.072;15.452;2022-10-31T08:29:21;15.20;79.10
2783;DHT22;1399;47.072;15.452;2022-10-31T08:31:46;15.20;79.00
2783;DHT22;1399;47.072;15.452;2022-10-31T08:34:12;15.30;79.10
2783;DHT22;1399;47.072;15.452;2022-10-31T08:36:38;15.20;79.00
2783;DHT22;1399;47.072;15.452;2022-10-31T08:39:04;15.30;79.20
2783;DHT22;1399;47.072;15.452;2022-10-31T08:41:30;15.30;78.70
2783;DHT22;1399;47.072;15.452;2022-10-31T08:43:56;15.30;79.20
2783;DHT22;1399;47.072;15.452;2022-10-31T08:46:21;15.30;79.40
2783;DHT22;1399;47.072;15.452;2022-10-31T08:48:48;15.30;79.20
2783;DHT22;1399;47.072;15.452;2022-10-31T08:51:14;15.40;79.30
2783;DHT22;1399;47.072;15.452;2022-10-31T08:53:40;15.40;79.10
2783;DHT22;1399;47.072;15.452;2022-10-31T08:56:06;15.50;79.00
2783;DHT22;1399;47.072;15.452;2022-10-31T08:58:31;15.60;79.00
2783;DHT22;1399;47.072;15.452;2022-10-31T09:00:59;15.60;78.90
2783;DHT22;1399;47.072;15.452;2022-10-31T09:03:28;15.60;78.80
2783;DHT22;1399;47.072;15.452;2022-10-31T09:05:59;15.60;78.80
2783;DHT22;1399;47.072;15.452;2022-10-31T09:08:25;15.60;78.90
2783;DHT22;1399;47.072;15.452;2022-10-31T09:10:51;15.60;78.90
2783;DHT22;1399;47.072;15.452;2022-10-31T09:13:21;15.70;78.90
2783;DHT22;1399;47.072;15.452;2022-10-31T09:15:49;15.80;79.70
2783;DHT22;1399;47.072;15.452;2022-10-31T09:18:17;15.90;78.50
2783;DHT22;1399;47.072;15.452;2022-10-31T09:20:44;16.00;78.10
2783;DHT22;1399;47.072;15.452;2022-10-31T09:25:40;16.00;77.80
2783;DHT22;1399;47.072;15.452;2022-10-31T09:28:08;16.00;77.90
2783;DHT22;1399;47.072;15.452;2022-10-31T09:30:35;16.00;78.10
2783;DHT22;1399;47.072;15.452;2022-10-31T09:33:03;16.00;78.20
2783;DHT22;1399;47.072;15.452;2022-10-31T09:35:30;16.00;78.40
2783;DHT22;1399;47.072;15.452;2022-10-31T09:40:25;16.00;78.50
2783;DHT22;1399;47.072;15.452;2022-10-31T09:43:03;16.00;78.50
2783;DHT22;1399;47.072;15.452;2022-10-31T09:51:25;16.00;78.50
2783;DHT22;1399;47.072;15.452;2022-10-31T09:53:53;16.00;78.70
2783;DHT22;1399;47.072;15.452;2022-10-31T09:56:21;16.00;78.70
2783;DHT22;1399;47.072;15.452;2022-10-31T09:58:54;16.00;78.80
2783;DHT22;1399;47.072;15.452;2022-10-31T10:06:45;16.10;79.20
2783;DHT22;1399;47.072;15.452;2022-10-31T10:09:11;16.10;79.30
2783;DHT22;1399;47.072;15.452;2022-10-31T10:11:51;16.10;79.40
2783;DHT22;1399;47.072;15.452;2022-10-31T10:22:55;16.10;79.50
2783;DHT22;1399;47.072;15.452;2022-10-31T10:25:32;16.10;79.60
2783;DHT22;1399;47.072;15.452;2022-10-31T10:28:19;16.10;79.50
2783;DHT22;1399;47.072;15.452;2022-10-31T10:33:55;16.10;79.70
2783;DHT22;1399;47.072;15.452;2022-10-31T10:36:22;16.10;79.80
2783;DHT22;1399;47.072;15.452;2022-10-31T10:38:55;16.10;79.80
2783;DHT22;1399;47.072;15.452;2022-10-31T10:41:26;16.20;80.00
2783;DHT22;1399;47.072;15.452;2022-10-31T10:43:53;16.20;80.10
2783;DHT22;1399;47.072;15.452;2022-10-31T10:46:30;16.20;80.00
2783;DHT22;1399;47.072;15.452;2022-10-31T10:49:34;16.20;80.10
2783;DHT22;1399;47.072;15.452;2022-10-31T10:52:28;16.20;80.10
2783;DHT22;1399;47.072;15.452;2022-10-31T10:54:56;16.20;80.20
2783;DHT22;1399;47.072;15.452;2022-10-31T11:02:42;16.20;80.30
2783;DHT22;1399;47.072;15.452;2022-10-31T11:05:23;16.20;80.30
2783;DHT22;1399;47.072;15.452;2022-10-31T11:07:49;16.20;80.30
2783;DHT22;1399;47.072;15.452;2022-10-31T11:10:16;16.30;80.50
2783;DHT22;1399;47.072;15.452;2022-10-31T11:12:58;16.30;80.50
2783;DHT22;1399;47.072;15.452;2022-10-31T11:15:26;16.30;80.50
2783;DHT22;1399;47.072;15.452;2022-10-31T11:17:55;16.30;80.50
2783;DHT22;1399;47.072;15.452;2022-10-31T11:20:26;16.30;80.60
2783;DHT22;1399;47.072;15.452;2022-10-31T11:23:02;16.30;80.60
2783;DHT22;1399;47.072;15.452;2022-10-31T11:25:28;16.30;80.60
2783;DHT22;1399;47.072;15.452;2022-10-31T11:28:05;16.30;80.60
2783;DHT22;1399;47.072;15.452;2022-10-31T11:30:36;16.30;80.60
2783;DHT22;1399;47.072;15.452;2022-10-31T11:35:43;16.40;80.80
2783;DHT22;1399;47.072;15.452;2022-10-31T11:38:19;16.40;80.80
2783;DHT22;1399;47.072;15.452;2022-10-31T11:40:58;16.40;80.90
2783;DHT22;1399;47.072;15.452;2022-10-31T11:43:25;16.40;80.90
2783;DHT22;1399;47.072;15.452;2022-10-31T11:45:51;16.40;80.90
2783;DHT22;1399;47.072;15.452;2022-10-31T11:48:22;16.40;80.90
2783;DHT22;1399;47.072;15.452;2022-10-31T11:50:57;16.40;80.90
2783;DHT22;1399;47.072;15.452;2022-10-31T11:53:29;16.40;81.00
2783;DHT22;1399;47.072;15.452;2022-10-31T11:56:12;16.40;80.90
2783;DHT22;1399;47.072;15.452;2022-10-31T11:58:38;16.40;80.90
2783;DHT22;1399;47.072;15.452;2022-10-31T12:01:05;16.40;80.90
2783;DHT22;1399;47.072;15.452;2022-10-31T12:03:48;16.40;80.90
2783;DHT22;1399;47.072;15.452;2022-10-31T12:06:27;16.40;80.90
2783;DHT22;1399;47.072;15.452;2022-10-31T12:08:53;16.50;81.00
2783;DHT22;1399;47.072;15.452;2022-10-31T12:16:51;16.50;81.00
2783;DHT22;1399;47.072;15.452;2022-10-31T12:19:42;16.50;81.00
2783;DHT22;1399;47.072;15.452;2022-10-31T12:28:12;16.50;81.20
2783;DHT22;1399;47.072;15.452;2022-10-31T12:36:23;16.60;81.30
2783;DHT22;1399;47.072;15.452;2022-10-31T12:39:12;16.60;81.40
2783;DHT22;1399;47.072;15.452;2022-10-31T12:47:46;16.60;81.40
2783;DHT22;1399;47.072;15.452;2022-10-31T12:53:10;16.60;81.60
2783;DHT22;1399;47.072;15.452;2022-10-31T12:55:55;16.60;81.60
2783;DHT22;1399;47.072;15.452;2022-10-31T12:58:44;16.70;81.70
2783;DHT22;1399;47.072;15.452;2022-10-31T13:01:33;16.70;81.80
2783;DHT22;1399;47.072;15.452;2022-10-31T13:04:15;16.70;81.90
2783;DHT22;1399;47.072;15.452;2022-10-31T13:06:57;16.70;81.90
2783;DHT22;1399;47.072;15.452;2022-10-31T13:09:33;16.70;82.00
2783;DHT22;1399;47.072;15.452;2022-10-31T13:12:20;16.70;82.00
2783;DHT22;1399;47.072;15.452;2022-10-31T13:14:55;16.70;82.10
2783;DHT22;1399;47.072;15.452;2022-10-31T13:17:25;16.70;82.10
2783;DHT22;1399;47.072;15.452;2022-10-31T13:19:57;16.70;82.00
2783;DHT22;1399;47.072;15.452;2022-10-31T13:22:28;16.70;82.00
2783;DHT22;1399;47.072;15.452;2022-10-31T13:25:03;16.70;82.10
2783;DHT22;1399;47.072;15.452;2022-10-31T13:27:57;16.70;82.20
2783;DHT22;1399;47.072;15.452;2022-10-31T13:30:26;16.70;82.20
2783;DHT22;1399;47.072;15.452;2022-10-31T13:46:45;16.80;82.40
2783;DHT22;1399;47.072;15.452;2022-10-31T13:49:40;16.80;82.30
2783;DHT22;1399;47.072;15.452;2022-10-31T13:54:37;16.80;82.40
2783;DHT22;1399;47.072;15.452;2022-10-31T13:57:29;16.80;82.40
2783;DHT22;1399;47.072;15.452;2022-10-31T13:59:55;16.80;82.40
2783;DHT22;1399;47.072;15.452;2022-10-31T14:02:26;16.80;82.50
2783;DHT22;1399;47.072;15.452;2022-10-31T14:04:59;16.80;82.50
2783;DHT22;1399;47.072;15.452;2022-10-31T14:07:27;16.80;82.60
2783;DHT22;1399;47.072;15.452;2022-10-31T14:10:03;16.80;82.60
2783;DHT22;1399;47.072;15.452;2022-10-31T14:12:40;16.80;82.60
2783;DHT22;1399;47.072;15.452;2022-10-31T14:15:21;16.80;82.70
2783;DHT22;1399;47.072;15.452;2022-10-31T14:17:51;16.80;82.70
2783;DHT22;1399;47.072;15.452;2022-10-31T14:22:45;16.80;82.80
2783;DHT22;1399;47.072;15.452;2022-10-31T14:25:28;16.80;82.80
2783;DHT22;1399;47.072;15.452;2022-10-31T14:27:54;16.80;82.80
2783;DHT22;1399;47.072;15.452;2022-10-31T14:30:23;16.70;82.70
2783;DHT22;1399;47.072;15.452;2022-10-31T14:32:55;16.80;82.80
2783;DHT22;1399;47.072;15.452;2022-10-31T14:35:34;16.80;82.90
2783;DHT22;1399;47.072;15.452;2022-10-31T14:38:18;16.80;82.90
2783;DHT22;1399;47.072;15.452;2022-10-31T14:46:58;16.80;83.00
2783;DHT22;1399;47.072;15.452;2022-10-31T14:49:39;16.80;83.00
2783;DHT22;1399;47.072;15.452;2022-10-31T14:52:08;16.70;82.90
2783;DHT22;1399;47.072;15.452;2022-10-31T14:54:44;16.70;83.00
2783;DHT22;1399;47.072;15.452;2022-10-31T14:57:24;16.70;83.10
2783;DHT22;1399;47.072;15.452;2022-10-31T14:59:56;16.70;83.10
2783;DHT22;1399;47.072;15.452;2022-10-31T15:02:31;16.70;83.20
2783;DHT22;1399;47.072;15.452;2022-10-31T15:05:10;16.70;83.20
2783;DHT22;1399;47.072;15.452;2022-10-31T15:07:36;16.70;83.30
2783;DHT22;1399;47.072;15.452;2022-10-31T15:10:31;16.70;83.30
2783;DHT22;1399;47.072;15.452;2022-10-31T15:13:18;16.70;83.40
2783;DHT22;1399;47.072;15.452;2022-10-31T15:15:45;16.70;83.40
2783;DHT22;1399;47.072;15.452;2022-10-31T15:18:20;16.70;83.40
2783;DHT22;1399;47.072;15.452;2022-10-31T15:20:46;16.60;83.30
2783;DHT22;1399;47.072;15.452;2022-10-31T15:23:17;16.60;83.40
2783;DHT22;1399;47.072;15.452;2022-10-31T15:25:46;16.60;83.40
2783;DHT22;1399;47.072;15.452;2022-10-31T15:28:22;16.60;83.40
2783;DHT22;1399;47.072;15.452;2022-10-31T15:30:54;16.60;83.50
2783;DHT22;1399;47.072;15.452;2022-10-31T15:33:26;16.60;83.60
2783;DHT22;1399;47.072;15.452;2022-10-31T15:36:02;16.60;83.60
2783;DHT22;1399;47.072;15.452;2022-10-31T15:38:29;16.60;83.70
2783;DHT22;1399;47.072;15.452;2022-10-31T15:41:02;16.50;83.60
2783;DHT22;1399;47.072;15.452;2022-10-31T15:43:34;16.50;83.60
2783;DHT22;1399;47.072;15.452;2022-10-31T15:46:01;16.50;83.60
2783;DHT22;1399;47.072;15.452;2022-10-31T15:48:28;16.50;83.70
2783;DHT22;1399;47.072;15.452;2022-10-31T15:50:57;16.50;83.70
2783;DHT22;1399;47.072;15.452;2022-10-31T15:53:27;16.40;83.70
2783;DHT22;1399;47.072;15.452;2022-10-31T15:56:08;16.40;83.70
2783;DHT22;1399;47.072;15.452;2022-10-31T15:58:48;16.40;83.70
2783;DHT22;1399;47.072;15.452;2022-10-31T16:01:31;16.40;83.80
2783;DHT22;1399;47.072;15.452;2022-10-31T16:06:38;16.40;83.80
2783;DHT22;1399;47.072;15.452;2022-10-31T16:09:22;16.30;83.70
2783;DHT22;1399;47.072;15.452;2022-10-31T16:11:49;16.30;83.80
2783;DHT22;1399;47.072;15.452;2022-10-31T16:14:18;16.30;83.80
2783;DHT22;1399;47.072;15.452;2022-10-31T16:16:49;16.30;83.80
2783;DHT22;1399;47.072;15.452;2022-10-31T16:19:25;16.30;83.90
2783;DHT22;1399;47.072;15.452;2022-10-31T16:21:54;16.30;84.00
2783;DHT22;1399;47.072;15.452;2022-10-31T16:24:25;16.20;83.90
2783;DHT22;1399;47.072;15.452;2022-10-31T16:26:54;16.20;84.00
2783;DHT22;1399;47.072;15.452;2022-10-31T16:31:54;16.20;84.00
2783;DHT22;1399;47.072;15.452;2022-10-31T16:34:21;16.20;84.10
2783;DHT22;1399;47.072;15.452;2022-10-31T16:36:48;16.20;84.30
2783;DHT22;1399;47.072;15.452;2022-10-31T16:39:14;16.20;84.30
2783;DHT22;1399;47.072;15.452;2022-10-31T16:41:41;16.20;84.30
2783;DHT22;1399;47.072;15.452;2022-10-31T16:44:25;16.10;84.30
2783;DHT22;1399;47.072;15.452;2022-10-31T16:47:08;16.10;84.40
2783;DHT22;1399;47.072;15.452;2022-10-31T16:49:34;16.10;84.50
2783;DHT22;1399;47.072;15.452;2022-10-31T16:52:00;16.10;84.50
2783;DHT22;1399;47.072;15.452;2022-10-31T16:54:28;16.10;84.60
2783;DHT22;1399;47.072;15.452;2022-10-31T16:56:54;16.00;84.50
2783;DHT22;1399;47.072;15.452;2022-10-31T16:59:20;16.00;84.60
2783;DHT22;1399;47.072;15.452;2022-10-31T17:01:48;16.00;84.70
2783;DHT22;1399;47.072;15.452;2022-10-31T17:04:22;16.00;84.80
2783;DHT22;1399;47.072;15.452;2022-10-31T17:06:48;16.00;84.80
2783;DHT22;1399;47.072;15.452;2022-10-31T17:09:14;16.00;84.90
2783;DHT22;1399;47.072;15.452;2022-10-31T17:11:45;16.00;84.90
2783;DHT22;1399;47.072;15.452;2022-10-31T17:14:11;15.90;84.90
2783;DHT22;1399;47.072;15.452;2022-10-31T17:16:37;15.90;85.00
2783;DHT22;1399;47.072;15.452;2022-10-31T17:19:03;15.90;85.10
2783;DHT22;1399;47.072;15.452;2022-10-31T17:21:30;15.90;85.10
2783;DHT22;1399;47.072;15.452;2022-10-31T17:23:56;15.90;85.20
2783;DHT22;1399;47.072;15.452;2022-10-31T17:26:21;15.80;85.10
2783;DHT22;1399;47.072;15.452;2022-10-31T17:28:48;15.80;85.20
2783;DHT22;1399;47.072;15.452;2022-10-31T17:31:26;15.80;85.20
2783;DHT22;1399;47.072;15.452;2022-10-31T17:33:54;15.80;85.30
2783;DHT22;1399;47.072;15.452;2022-10-31T17:36:21;15.80;85.30
2783;DHT22;1399;47.072;15.452;2022-10-31T17:38:47;15.80;86.30
2783;DHT22;1399;47.072;15.452;2022-10-31T17:41:12;15.80;85.40
2783;DHT22;1399;47.072;15.452;2022-10-31T17:43:38;15.80;85.50
2783;DHT22;1399;47.072;15.452;2022-10-31T17:46:05;15.80;85.50
2783;DHT22;1399;47.072;15.452;2022-10-31T17:48:33;15.70;85.50
2783;DHT22;1399;47.072;15.452;2022-10-31T17:51:04;15.70;85.50
2783;DHT22;1399;47.072;15.452;2022-10-31T17:53:32;15.70;85.60
2783;DHT22;1399;47.072;15.452;2022-10-31T17:56:03;15.70;85.60
2783;DHT22;1399;47.072;15.452;2022-10-31T17:58:30;15.70;85.60
2783;DHT22;1399;47.072;15.452;2022-10-31T18:00:56;15.70;85.70
2783;DHT22;1399;47.072;15.452;2022-10-31T18:03:23;15.60;85.60
2783;DHT22;1399;47.072;15.452;2022-10-31T18:05:57;15.60;85.70
2783;DHT22;1399;47.072;15.452;2022-10-31T18:08:28;15.60;85.70
2783;DHT22;1399;47.072;15.452;2022-10-31T18:10:56;15.60;85.70
2783;DHT22;1399;47.072;15.452;2022-10-31T18:13:28;15.60;85.80
2783;DHT22;1399;47.072;15.452;2022-10-31T18:15:54;15.60;85.80